Alpena, South Dakota
Current Conditions -  °F | °C
As of 8:55 AM on Friday 28 Nov 2014 (Local Time) from KHON Reporting Station
Overcast Overcast  
Wind Chill: 16°   Ceiling: 11000
Heat Index: 23°   Visibility: 10mi
Dew Point: 18°   Wind: 6mph
Humidity: 81%   Direction: 120°ESE
Pressure: 29.79"   Gusts: NA
Location:  44.18°N, 98.37°W
Report Text: KHON 281455Z AUTO 12005KT 10SM OVC110 M05/M08 A2979 RMK AO2 SLP109 T10501078 56009
Loading
Personal Weather Stations






























Interactive Weather Map New forecast layout! Learn more

10-Day Weather Forecast

Advertisements
Track Severe Weather on mobile